createdAt,value
2023-03-31T00:01:16.926Z,98936.72
2023-03-31T00:03:45.558Z,98933.28
2023-03-31T00:06:18.830Z,98934.13
2023-03-31T00:08:51.900Z,98935.00
2023-03-31T00:11:22.552Z,98930.66
2023-03-31T00:13:52.956Z,98924.56
2023-03-31T00:16:21.615Z,98921.91
2023-03-31T00:18:50.784Z,98914.06
2023-03-31T00:21:26.115Z,98909.75
2023-03-31T00:23:56.406Z,98913.19
2023-03-31T00:26:26.312Z,98895.84
2023-03-31T00:28:57.091Z,98894.97
2023-03-31T00:31:27.212Z,98884.56
2023-03-31T00:33:57.536Z,98878.47
2023-03-31T00:36:28.878Z,98875.84
2023-03-31T00:39:00.320Z,98875.91
2023-03-31T00:41:30.499Z,98867.22
2023-03-31T00:44:13.150Z,98869.81
2023-03-31T00:46:52.872Z,98853.34
2023-03-31T00:49:31.231Z,98849.84
2023-03-31T00:52:05.261Z,98850.69
2023-03-31T00:54:35.775Z,98849.84
2023-03-31T00:57:06.950Z,98850.72
2023-03-31T00:59:42.168Z,98848.13
2023-03-31T01:02:11.908Z,98847.25
2023-03-31T01:04:45.638Z,98841.16
2023-03-31T01:07:23.992Z,98835.09
2023-03-31T01:09:55.462Z,98830.75
2023-03-31T01:12:25.242Z,98828.09
2023-03-31T01:14:56.072Z,98820.22
2023-03-31T01:17:25.554Z,98809.84
2023-03-31T01:20:11.883Z,98801.13
2023-03-31T01:23:27.058Z,98791.56
2023-03-31T01:26:33.555Z,98788.91
2023-03-31T01:29:11.853Z,98780.22
2023-03-31T01:32:42.945Z,98776.75
2023-03-31T01:35:57.206Z,98777.56
2023-03-31T01:39:09.438Z,98764.59
2023-03-31T01:41:59.386Z,98758.56
2023-03-31T01:44:41.019Z,98753.41
2023-03-31T01:47:18.396Z,98746.53
2023-03-31T01:49:58.156Z,98738.75
2023-03-31T01:52:32.804Z,98737.00
2023-03-31T01:55:08.193Z,98730.06
2023-03-31T01:57:43.153Z,98727.44
2023-03-31T02:00:14.447Z,98723.13
2023-03-31T02:02:49.496Z,98717.03
2023-03-31T02:05:21.424Z,98721.41
2023-03-31T02:07:53.950Z,98718.81
2023-03-31T02:10:25.008Z,98709.25
2023-03-31T02:12:56.422Z,98713.56
2023-03-31T02:15:31.375Z,98714.41
2023-03-31T02:18:03.585Z,98692.72
2023-03-31T02:20:34.125Z,98689.28
2023-03-31T02:23:03.269Z,98684.09
2023-03-31T02:25:37.762Z,98691.03
2023-03-31T02:28:12.288Z,98679.78
2023-03-31T02:30:50.061Z,98676.34
2023-03-31T02:33:19.390Z,98664.19
2023-03-31T02:35:47.840Z,98658.16
2023-03-31T02:38:16.399Z,98655.56
2023-03-31T02:40:44.984Z,98652.94
2023-03-31T02:43:14.874Z,98652.06
2023-03-31T02:45:46.661Z,98639.03
2023-03-31T02:48:20.074Z,98628.63
2023-03-31T02:51:52.845Z,98623.38
2023-03-31T02:55:09.531Z,98614.63
2023-03-31T02:58:23.792Z,98609.41
2023-03-31T03:01:16.781Z,98584.22
2023-03-31T03:04:00.103Z,98586.81
2023-03-31T03:06:40.874Z,98572.13
2023-03-31T03:09:34.629Z,98572.16
2023-03-31T03:12:13.695Z,98548.78
2023-03-31T03:14:49.687Z,98556.59
2023-03-31T03:17:24.628Z,98552.28
2023-03-31T03:19:55.651Z,98547.97
2023-03-31T03:22:24.968Z,98540.16
2023-03-31T03:24:53.628Z,98536.69
2023-03-31T03:27:24.009Z,98533.22
2023-03-31T03:29:54.353Z,98522.84
2023-03-31T03:32:22.788Z,98510.69
2023-03-31T03:34:51.366Z,98501.16
2023-03-31T03:37:19.893Z,98486.47
2023-03-31T03:39:48.256Z,98483.88
2023-03-31T03:42:17.230Z,98495.13
2023-03-31T03:44:45.935Z,98486.47
2023-03-31T03:47:16.273Z,98482.16
2023-03-31T03:49:44.720Z,98463.09
2023-03-31T03:52:13.076Z,98456.19
2023-03-31T03:54:41.641Z,98455.34
2023-03-31T03:57:10.315Z,98451.84
2023-03-31T03:59:39.161Z,98464.81
2023-03-31T04:02:07.897Z,98454.44
2023-03-31T04:04:38.040Z,98451.84
2023-03-31T04:07:06.723Z,98438.88
2023-03-31T04:09:35.917Z,98423.28
2023-03-31T04:12:04.760Z,98431.06
2023-03-31T04:14:33.318Z,98428.50
2023-03-31T04:17:02.611Z,98425.84
2023-03-31T04:19:31.137Z,98408.53
2023-03-31T04:22:02.679Z,98415.47
2023-03-31T04:24:33.305Z,98413.72
2023-03-31T04:27:03.107Z,98403.34
2023-03-31T04:29:33.646Z,98406.84
2023-03-31T04:32:03.442Z,98383.50
2023-03-31T04:34:36.013Z,98379.16
2023-03-31T04:37:06.087Z,98380.03
2023-03-31T04:39:34.711Z,98373.91
2023-03-31T04:42:03.443Z,98354.84
2023-03-31T04:44:32.156Z,98373.88
2023-03-31T04:47:03.286Z,98385.06
2023-03-31T04:49:33.560Z,98385.91
2023-03-31T04:52:02.217Z,98370.28
2023-03-31T04:54:32.132Z,98369.41
2023-03-31T04:57:00.713Z,98352.09
2023-03-31T04:59:29.165Z,98352.97
2023-03-31T05:01:57.942Z,98344.31
2023-03-31T05:04:26.670Z,98347.72
2023-03-31T05:06:55.189Z,98325.22
2023-03-31T05:09:24.188Z,98325.19
2023-03-31T05:11:54.738Z,98309.59
2023-03-31T05:14:23.427Z,98309.59
2023-03-31T05:16:52.242Z,98307.88
2023-03-31T05:19:20.589Z,98302.69
2023-03-31T05:21:49.034Z,98296.63
2023-03-31T05:24:17.549Z,98288.84
2023-03-31T05:26:49.845Z,98272.41
2023-03-31T05:29:20.055Z,98268.97
2023-03-31T05:31:48.976Z,98268.06
2023-03-31T05:34:18.392Z,98251.63
2023-03-31T05:36:48.144Z,98243.81
2023-03-31T05:39:16.946Z,98226.50
2023-03-31T05:41:45.493Z,98229.97
2023-03-31T05:44:14.033Z,98215.19
2023-03-31T05:46:44.258Z,98214.28
2023-03-31T05:49:15.937Z,98207.41
2023-03-31T05:51:44.327Z,98197.88
2023-03-31T05:54:12.998Z,98201.34
2023-03-31T05:56:41.520Z,98190.13
2023-03-31T05:59:10.436Z,98179.75
2023-03-31T06:01:39.337Z,98191.81
2023-03-31T06:04:09.285Z,98187.53
2023-03-31T06:06:38.155Z,98176.25
2023-03-31T06:09:07.635Z,98165.88
2023-03-31T06:11:36.435Z,98160.69
2023-03-31T06:14:04.894Z,98165.00
2023-03-31T06:16:33.536Z,98167.56
2023-03-31T06:19:01.905Z,98157.16
2023-03-31T06:21:31.960Z,98148.53
2023-03-31T06:24:00.627Z,98150.25
2023-03-31T06:26:29.562Z,98150.25
2023-03-31T06:28:58.309Z,98153.69
2023-03-31T06:31:28.170Z,98146.78
2023-03-31T06:33:56.626Z,98150.22
2023-03-31T06:36:25.095Z,98155.38
2023-03-31T06:38:55.402Z,98151.06
2023-03-31T06:41:24.725Z,98138.09
2023-03-31T06:43:53.123Z,98148.44
2023-03-31T06:46:22.329Z,98134.59
2023-03-31T06:48:50.893Z,98138.91
2023-03-31T06:51:19.610Z,98132.88
2023-03-31T06:53:48.554Z,98127.69
2023-03-31T06:56:18.458Z,98129.41
2023-03-31T06:58:47.135Z,98132.88
2023-03-31T07:01:15.556Z,98125.94
2023-03-31T07:03:44.397Z,98123.34
2023-03-31T07:06:13.338Z,98125.06
2023-03-31T07:08:41.738Z,98124.22
2023-03-31T07:11:10.440Z,98120.72
2023-03-31T07:13:40.711Z,98124.16
2023-03-31T07:16:09.986Z,98129.34
2023-03-31T07:18:42.106Z,98125.88
2023-03-31T07:21:11.072Z,98129.34
2023-03-31T07:23:39.799Z,98129.34
2023-03-31T07:26:08.998Z,98125.84
2023-03-31T07:28:37.588Z,98130.19
2023-03-31T07:31:14.023Z,98129.34
2023-03-31T07:33:42.976Z,98125.84
2023-03-31T07:36:14.131Z,98126.72
2023-03-31T07:38:44.480Z,98123.28
2023-03-31T07:41:14.736Z,98120.66
2023-03-31T07:43:43.880Z,98117.25
2023-03-31T07:46:19.627Z,98116.38
2023-03-31T07:48:48.587Z,98116.38
2023-03-31T07:51:18.901Z,98117.22
2023-03-31T07:53:49.373Z,98114.63
2023-03-31T07:56:18.014Z,98109.44
2023-03-31T07:58:47.653Z,98106.84
2023-03-31T08:01:20.482Z,98097.38
2023-03-31T08:03:50.025Z,98104.28
2023-03-31T08:06:20.643Z,98095.66
2023-03-31T08:08:49.443Z,98092.19
2023-03-31T08:11:18.414Z,98090.47
2023-03-31T08:13:47.009Z,98089.59
2023-03-31T08:16:17.203Z,98072.31
2023-03-31T08:18:46.248Z,98072.28
2023-03-31T08:21:14.937Z,98079.19
2023-03-31T08:23:43.359Z,98080.94
2023-03-31T08:26:17.342Z,98073.19
2023-03-31T08:28:48.829Z,98077.50
2023-03-31T08:31:21.419Z,98074.06
2023-03-31T08:33:49.778Z,98078.38
2023-03-31T08:36:18.621Z,98062.84
2023-03-31T08:38:49.702Z,98077.56
2023-03-31T08:41:36.722Z,98062.91
2023-03-31T08:44:11.005Z,98070.69
2023-03-31T08:46:43.108Z,98060.31
2023-03-31T08:49:17.924Z,98067.25
2023-03-31T08:51:51.576Z,98056.88
2023-03-31T08:54:31.689Z,98053.38
2023-03-31T08:57:00.321Z,98061.22
2023-03-31T08:59:32.215Z,98054.28
2023-03-31T09:02:16.089Z,98053.44
2023-03-31T09:05:07.012Z,98053.44
2023-03-31T09:07:47.525Z,98053.44
2023-03-31T09:10:41.196Z,98049.13
2023-03-31T09:13:31.430Z,98062.09
2023-03-31T09:16:05.541Z,98075.06
2023-03-31T09:18:38.305Z,98051.72
2023-03-31T09:21:15.739Z,98065.59
2023-03-31T09:23:49.981Z,98065.59
2023-03-31T09:26:27.821Z,98055.22
2023-03-31T09:28:59.220Z,98049.19
2023-03-31T09:31:29.012Z,98056.16
2023-03-31T09:34:02.859Z,98057.94
2023-03-31T09:36:31.332Z,98041.50
2023-03-31T09:39:02.023Z,98043.28
2023-03-31T09:41:32.984Z,98039.81
2023-03-31T09:44:02.588Z,98031.22
2023-03-31T09:46:34.800Z,98039.00
2023-03-31T09:49:12.456Z,98024.38
2023-03-31T09:51:47.314Z,98020.03
2023-03-31T09:54:23.411Z,98020.94
2023-03-31T09:56:54.164Z,98020.06
2023-03-31T09:59:25.008Z,98014.00
2023-03-31T10:01:55.164Z,98017.50
2023-03-31T10:04:27.712Z,98008.88
2023-03-31T10:06:57.935Z,98002.81
2023-03-31T10:09:29.515Z,98001.09
2023-03-31T10:12:01.308Z,97994.16
2023-03-31T10:14:41.931Z,97982.06
2023-03-31T10:17:16.762Z,97981.19
2023-03-31T10:19:53.258Z,97977.75
2023-03-31T10:22:31.062Z,97969.13
2023-03-31T10:25:15.322Z,97962.22
2023-03-31T10:27:46.892Z,97957.06
2023-03-31T10:30:23.519Z,97960.56
2023-03-31T10:32:54.610Z,97957.06
2023-03-31T10:35:28.299Z,97952.78
2023-03-31T10:37:59.627Z,97957.13
2023-03-31T10:40:30.233Z,97962.31
2023-03-31T10:43:09.869Z,97961.44
2023-03-31T10:45:44.714Z,97967.50
2023-03-31T10:48:21.558Z,97964.88
2023-03-31T10:50:51.656Z,97961.41
2023-03-31T10:53:20.579Z,97958.81
2023-03-31T10:56:15.780Z,97953.63
2023-03-31T10:59:16.811Z,97947.56
2023-03-31T11:02:03.205Z,97950.19
2023-03-31T11:04:49.282Z,97939.84
2023-03-31T11:07:51.932Z,97928.59
2023-03-31T11:10:42.925Z,97920.00
2023-03-31T11:13:23.010Z,97916.56
2023-03-31T11:15:57.912Z,97906.25
2023-03-31T11:18:57.078Z,97901.13
2023-03-31T11:21:39.241Z,97886.44
2023-03-31T11:24:22.415Z,97895.13
2023-03-31T11:27:02.950Z,97893.38
2023-03-31T11:29:37.177Z,97941.88
2023-03-31T11:32:45.457Z,97979.13
2023-03-31T11:35:47.360Z,97985.13
2023-03-31T11:38:35.799Z,97962.56
2023-03-31T11:41:09.884Z,97974.63
2023-03-31T11:43:45.039Z,97965.94
2023-03-31T11:46:19.096Z,97974.56
2023-03-31T11:48:57.368Z,97978.00
2023-03-31T11:51:30.535Z,97971.03
2023-03-31T11:54:01.730Z,97966.66
2023-03-31T11:56:37.675Z,97970.97
2023-03-31T11:59:07.965Z,97965.75
2023-03-31T12:01:44.101Z,97961.44
2023-03-31T12:04:27.562Z,97967.47
2023-03-31T12:07:05.344Z,97955.38
2023-03-31T12:09:40.885Z,97952.81
2023-03-31T12:12:14.752Z,97951.94
2023-03-31T12:14:50.363Z,97945.03
2023-03-31T12:17:22.449Z,97940.75
2023-03-31T12:19:55.599Z,97936.44
2023-03-31T12:22:28.624Z,97933.91
2023-03-31T12:24:57.464Z,97931.31
2023-03-31T12:27:33.645Z,97926.13
2023-03-31T12:30:04.831Z,97915.78
2023-03-31T12:32:37.874Z,97909.72
2023-03-31T12:35:15.451Z,97911.50
2023-03-31T12:38:31.058Z,97914.13
2023-03-31T12:41:09.875Z,97914.13
2023-03-31T12:44:04.119Z,97907.19
2023-03-31T12:47:09.717Z,97910.69
2023-03-31T12:50:00.436Z,97908.91
2023-03-31T12:52:40.625Z,97910.66
2023-03-31T12:55:34.986Z,97920.19
2023-03-31T12:58:39.640Z,97917.59
2023-03-31T13:01:17.092Z,97919.31
2023-03-31T13:03:52.738Z,97922.78
2023-03-31T13:07:01.349Z,97915.84
2023-03-31T13:09:58.519Z,97915.81
2023-03-31T13:12:31.701Z,97906.31
2023-03-31T13:15:00.748Z,97906.31
2023-03-31T13:17:34.073Z,97905.47
2023-03-31T13:20:31.599Z,97892.50
2023-03-31T13:23:20.733Z,97889.88
2023-03-31T13:25:51.967Z,97878.66
2023-03-31T13:28:28.933Z,97872.59
2023-03-31T13:31:02.084Z,97877.81
2023-03-31T13:33:42.233Z,97869.16
2023-03-31T13:36:49.962Z,97879.56
2023-03-31T13:39:49.745Z,97896.03
2023-03-31T13:42:53.513Z,97879.59
2023-03-31T13:45:43.894Z,97886.50
2023-03-31T13:48:56.944Z,97877.84
2023-03-31T13:51:36.239Z,97865.69
2023-03-31T13:54:54.804Z,97872.63
2023-03-31T13:57:40.729Z,97860.53
2023-03-31T14:00:44.307Z,97864.84
2023-03-31T14:03:28.221Z,97862.25
2023-03-31T14:06:04.409Z,97867.47
2023-03-31T14:08:47.197Z,97856.19
2023-03-31T14:11:24.105Z,97859.66
2023-03-31T14:14:03.037Z,97855.34
2023-03-31T14:16:37.317Z,97850.16
2023-03-31T14:19:44.319Z,97851.00
2023-03-31T14:22:23.811Z,97853.59
2023-03-31T14:25:00.357Z,97847.53
2023-03-31T14:27:48.547Z,97838.00
2023-03-31T14:30:29.490Z,97831.94
2023-03-31T14:33:12.997Z,97829.34
2023-03-31T14:35:53.146Z,97821.53
2023-03-31T14:38:24.859Z,97825.00
2023-03-31T14:40:56.441Z,97813.75
2023-03-31T14:43:29.055Z,97812.88
2023-03-31T14:46:01.956Z,97816.34
2023-03-31T14:48:33.100Z,97805.94
2023-03-31T14:51:04.819Z,97805.06
2023-03-31T14:53:37.839Z,97802.47
2023-03-31T14:56:11.205Z,97792.94
2023-03-31T14:58:44.784Z,97794.69
2023-03-31T15:01:19.962Z,97790.34
2023-03-31T15:03:48.856Z,97779.09
2023-03-31T15:06:17.531Z,97795.56
2023-03-31T15:08:47.486Z,97783.41
2023-03-31T15:11:20.785Z,97783.41
2023-03-31T15:14:04.555Z,97777.34
2023-03-31T15:16:42.368Z,97790.34
2023-03-31T15:19:18.069Z,97782.53
2023-03-31T15:21:47.346Z,97787.75
2023-03-31T15:24:18.147Z,97792.94
2023-03-31T15:26:53.912Z,97790.34
2023-03-31T15:29:27.652Z,97799.88
2023-03-31T15:31:58.854Z,97805.94
2023-03-31T15:34:33.341Z,97812.88
2023-03-31T15:37:02.768Z,97828.47
2023-03-31T15:39:34.895Z,97832.81
2023-03-31T15:42:05.396Z,97845.75
2023-03-31T15:44:40.483Z,97863.09
2023-03-31T15:47:17.374Z,97858.75
2023-03-31T15:49:53.519Z,97852.69
2023-03-31T15:52:29.728Z,97863.06
2023-03-31T15:55:00.513Z,97844.84
2023-03-31T15:57:38.060Z,97851.78
2023-03-31T16:00:16.961Z,97866.53
2023-03-31T16:02:47.342Z,97846.56
2023-03-31T16:05:43.672Z,97833.56
2023-03-31T16:08:26.166Z,97829.25
2023-03-31T16:11:03.240Z,97836.19
2023-03-31T16:13:33.627Z,97817.16
2023-03-31T16:16:02.327Z,97826.63
2023-03-31T16:18:35.747Z,97837.88
2023-03-31T16:21:08.386Z,97826.59
2023-03-31T16:23:44.360Z,97827.47
2023-03-31T16:26:21.886Z,97823.13
2023-03-31T16:28:52.749Z,97817.06
2023-03-31T16:31:36.634Z,97819.63
2023-03-31T16:34:06.990Z,97819.66
2023-03-31T16:36:36.316Z,97822.22
2023-03-31T16:39:06.739Z,97821.34
2023-03-31T16:41:38.761Z,97825.69
2023-03-31T16:44:07.329Z,97815.31
2023-03-31T16:46:35.980Z,97817.03
2023-03-31T16:49:04.408Z,97813.56
2023-03-31T16:51:32.836Z,97812.72
2023-03-31T16:54:01.582Z,97810.13
2023-03-31T16:56:29.926Z,97800.56
2023-03-31T16:58:59.697Z,97813.56
2023-03-31T17:01:28.306Z,97807.50
2023-03-31T17:03:56.948Z,97811.84
2023-03-31T17:06:25.790Z,97804.00
2023-03-31T17:08:54.189Z,97809.22
2023-03-31T17:11:23.179Z,97808.34
2023-03-31T17:13:52.100Z,97815.25
2023-03-31T17:16:29.776Z,97813.56
2023-03-31T17:19:09.814Z,97804.88
2023-03-31T17:21:38.813Z,97807.47
2023-03-31T17:24:10.556Z,97801.44
2023-03-31T17:26:39.562Z,97792.78
2023-03-31T17:29:08.049Z,97800.56
2023-03-31T17:31:38.437Z,97796.22
2023-03-31T17:34:07.187Z,97795.34
2023-03-31T17:36:36.016Z,97804.00
2023-03-31T17:39:05.128Z,97796.22
2023-03-31T17:41:33.545Z,97803.13
2023-03-31T17:44:02.388Z,97805.75
2023-03-31T17:46:30.790Z,97801.41
2023-03-31T17:49:00.917Z,97816.09
2023-03-31T17:51:29.948Z,97815.25
2023-03-31T17:53:58.545Z,97822.13
2023-03-31T17:56:28.726Z,97823.84
2023-03-31T17:58:57.732Z,97822.09
2023-03-31T18:01:27.188Z,97822.13
2023-03-31T18:03:56.623Z,97817.78
2023-03-31T18:06:27.402Z,97815.22
2023-03-31T18:08:57.121Z,97817.81
2023-03-31T18:11:26.033Z,97829.03
2023-03-31T18:13:55.492Z,97835.09
2023-03-31T18:16:24.315Z,97839.44
2023-03-31T18:18:52.768Z,97833.38
2023-03-31T18:21:21.195Z,97832.50
2023-03-31T18:23:55.223Z,97827.31
2023-03-31T18:26:26.109Z,97823.84
2023-03-31T18:28:54.999Z,97829.00
2023-03-31T18:31:25.072Z,97828.16
2023-03-31T18:33:54.762Z,97831.56
2023-03-31T18:36:25.263Z,97825.53
2023-03-31T18:38:55.800Z,97822.91
2023-03-31T18:41:25.391Z,97821.16
2023-03-31T18:43:54.086Z,97832.44
2023-03-31T18:46:22.591Z,97827.25
2023-03-31T18:48:51.650Z,97827.25
2023-03-31T18:51:20.151Z,97835.88
2023-03-31T18:53:48.685Z,97841.06
2023-03-31T18:56:18.744Z,97839.31
2023-03-31T18:58:50.860Z,97831.53
2023-03-31T19:01:20.266Z,97846.22
2023-03-31T19:03:49.084Z,97836.72
2023-03-31T19:06:17.877Z,97839.28
2023-03-31T19:08:46.368Z,97843.59
2023-03-31T19:11:17.289Z,97832.34
2023-03-31T19:13:47.525Z,97838.41
2023-03-31T19:16:17.508Z,97834.06
2023-03-31T19:18:46.633Z,97832.31
2023-03-31T19:21:14.965Z,97827.16
2023-03-31T19:23:43.438Z,97830.59
2023-03-31T19:26:15.719Z,97837.56
2023-03-31T19:28:44.548Z,97822.84
2023-03-31T19:31:15.326Z,97823.72
2023-03-31T19:33:44.213Z,97839.28
2023-03-31T19:36:14.300Z,97832.38
2023-03-31T19:38:42.850Z,97840.16
2023-03-31T19:41:11.372Z,97831.47
2023-03-31T19:43:39.919Z,97822.81
2023-03-31T19:46:08.460Z,97833.19
2023-03-31T19:48:38.348Z,97825.38
2023-03-31T19:51:08.505Z,97823.66
2023-03-31T19:53:40.824Z,97823.66
2023-03-31T19:56:12.650Z,97815.03
2023-03-31T19:58:41.932Z,97807.19
2023-03-31T20:01:17.808Z,97811.53
2023-03-31T20:03:52.884Z,97809.78
2023-03-31T20:06:24.287Z,97806.31
2023-03-31T20:08:55.998Z,97808.94
2023-03-31T20:11:26.207Z,97801.09
2023-03-31T20:13:55.281Z,97804.53
2023-03-31T20:16:27.422Z,97809.72
2023-03-31T20:19:00.103Z,97803.69
2023-03-31T20:21:30.844Z,97807.97
2023-03-31T20:23:59.917Z,97812.31
2023-03-31T20:26:30.713Z,97806.28
2023-03-31T20:29:01.902Z,97809.72
2023-03-31T20:31:34.062Z,97803.66
2023-03-31T20:34:05.340Z,97795.91
2023-03-31T20:36:34.313Z,97814.91
2023-03-31T20:39:05.660Z,97803.66
2023-03-31T20:41:37.107Z,97798.47
2023-03-31T20:44:07.555Z,97800.19
2023-03-31T20:46:36.374Z,97795.88
2023-03-31T20:49:07.173Z,97801.88
2023-03-31T20:51:38.703Z,97802.78
2023-03-31T20:54:08.398Z,97804.50
2023-03-31T20:56:39.524Z,97814.00
2023-03-31T20:59:10.290Z,97803.59
2023-03-31T21:01:40.211Z,97802.75
2023-03-31T21:04:12.048Z,97811.38
2023-03-31T21:06:43.139Z,97811.38
2023-03-31T21:09:12.835Z,97813.09
2023-03-31T21:11:42.396Z,97806.19
2023-03-31T21:14:14.406Z,97805.34
2023-03-31T21:16:43.183Z,97808.78
2023-03-31T21:19:13.664Z,97814.84
2023-03-31T21:21:43.205Z,97813.09
2023-03-31T21:24:13.214Z,97809.59
2023-03-31T21:26:42.120Z,97819.09
2023-03-31T21:29:10.769Z,97820.84
2023-03-31T21:31:39.314Z,97813.94
2023-03-31T21:34:07.733Z,97830.34
2023-03-31T21:36:38.021Z,97815.66
2023-03-31T21:39:06.574Z,97813.09
2023-03-31T21:41:35.088Z,97818.22
2023-03-31T21:44:04.219Z,97810.44
2023-03-31T21:46:34.612Z,97812.16
2023-03-31T21:49:04.497Z,97807.84
2023-03-31T21:51:33.303Z,97818.22
2023-03-31T21:54:03.386Z,97817.34
2023-03-31T21:56:32.762Z,97809.56
2023-03-31T21:59:02.371Z,97806.13
2023-03-31T22:01:31.437Z,97811.28
2023-03-31T22:04:00.345Z,97818.19
2023-03-31T22:06:28.923Z,97816.44
2023-03-31T22:08:57.589Z,97818.19
2023-03-31T22:11:28.483Z,97810.41
2023-03-31T22:13:57.942Z,97809.53
2023-03-31T22:16:26.932Z,97804.38
2023-03-31T22:18:56.967Z,97806.94
2023-03-31T22:21:41.479Z,97813.00
2023-03-31T22:24:13.305Z,97811.25
2023-03-31T22:26:43.386Z,97811.25
2023-03-31T22:29:15.885Z,97811.25
2023-03-31T22:31:44.465Z,97814.69
2023-03-31T22:34:13.043Z,97812.97
2023-03-31T22:36:41.577Z,97804.34
2023-03-31T22:39:10.713Z,97804.34
2023-03-31T22:41:39.203Z,97798.28
2023-03-31T22:44:09.591Z,97804.34
2023-03-31T22:46:39.409Z,97808.66
2023-03-31T22:49:07.802Z,97818.19
2023-03-31T22:51:36.294Z,97807.81
2023-03-31T22:54:05.085Z,97800.00
2023-03-31T22:56:33.455Z,97808.63
2023-03-31T22:59:02.341Z,97796.53
2023-03-31T23:01:32.168Z,97809.47
2023-03-31T23:04:01.448Z,97805.97
2023-03-31T23:06:31.069Z,97798.22
2023-03-31T23:08:59.890Z,97798.22
2023-03-31T23:11:28.343Z,97797.34
2023-03-31T23:13:56.988Z,97780.06
2023-03-31T23:16:27.555Z,97789.56
2023-03-31T23:18:58.217Z,97797.34
2023-03-31T23:21:29.135Z,97797.34
2023-03-31T23:24:01.190Z,97791.31
2023-03-31T23:26:32.129Z,97792.16
2023-03-31T23:29:02.010Z,97799.09
2023-03-31T23:31:33.186Z,97810.31
2023-03-31T23:34:03.251Z,97786.97
2023-03-31T23:36:31.850Z,97801.66
2023-03-31T23:39:00.902Z,97793.88
2023-03-31T23:41:29.952Z,97799.91
2023-03-31T23:43:58.975Z,97798.19
2023-03-31T23:46:27.967Z,97799.91
2023-03-31T23:48:56.464Z,97793.00
2023-03-31T23:51:26.761Z,97793.03
2023-03-31T23:53:55.200Z,97792.13
2023-03-31T23:56:23.803Z,97792.13
2023-03-31T23:58:52.154Z,97798.19
